sensor_id;sensor_type;location;lat;lon;timestamp;pressure;altitude;pressure_sealevel;temperature;humidity
7662;BME280;30314;48.184;11.510;2023-04-03T00:00:37;96461.50;;;1.84;100.00
7662;BME280;30314;48.184;11.510;2023-04-03T00:03:04;96474.28;;;1.92;100.00
7662;BME280;30314;48.184;11.510;2023-04-03T00:05:31;96467.09;;;1.88;100.00
7662;BME280;30314;48.184;11.510;2023-04-03T00:07:57;96477.66;;;1.93;100.00
7662;BME280;30314;48.184;11.510;2023-04-03T00:10:24;96478.91;;;1.90;100.00
7662;BME280;30314;48.184;11.510;2023-04-03T00:12:50;96470.41;;;1.95;100.00
7662;BME280;30314;48.184;11.510;2023-04-03T00:15:17;96474.84;;;1.94;100.00
7662;BME280;30314;48.184;11.510;2023-04-03T00:17:43;96477.88;;;1.91;100.00
7662;BME280;30314;48.184;11.510;2023-04-03T00:20:10;96478.66;;;1.92;100.00
7662;BME280;30314;48.184;11.510;2023-04-03T00:22:36;96473.75;;;1.84;100.00
7662;BME280;30314;48.184;11.510;2023-04-03T00:25:03;96475.13;;;1.86;100.00
7662;BME280;30314;48.184;11.510;2023-04-03T00:27:30;96488.06;;;1.93;100.00
7662;BME280;30314;48.184;11.510;2023-04-03T00:29:57;96468.31;;;1.85;100.00
7662;BME280;30314;48.184;11.510;2023-04-03T00:32:23;96469.31;;;1.84;100.00
7662;BME280;30314;48.184;11.510;2023-04-03T00:34:50;96472.94;;;1.83;100.00
7662;BME280;30314;48.184;11.510;2023-04-03T00:37:16;96473.75;;;1.84;100.00
7662;BME280;30314;48.184;11.510;2023-04-03T00:39:43;96485.97;;;1.83;100.00
7662;BME280;30314;48.184;11.510;2023-04-03T00:42:09;96480.13;;;1.88;100.00
7662;BME280;30314;48.184;11.510;2023-04-03T00:47:05;96447.34;;;1.54;100.00
7662;BME280;30314;48.184;11.510;2023-04-03T00:49:33;96462.31;;;1.85;100.00
7662;BME280;30314;48.184;11.510;2023-04-03T00:52:00;96488.06;;;1.93;100.00
7662;BME280;30314;48.184;11.510;2023-04-03T00:54:27;96487.44;;;1.97;100.00
7662;BME280;30314;48.184;11.510;2023-04-03T00:56:55;96492.91;;;1.89;100.00
7662;BME280;30314;48.184;11.510;2023-04-03T00:59:26;96484.53;;;1.87;100.00
7662;BME280;30314;48.184;11.510;2023-04-03T01:01:55;96489.59;;;1.82;100.00
7662;BME280;30314;48.184;11.510;2023-04-03T01:04:34;96477.84;;;1.73;100.00
7662;BME280;30314;48.184;11.510;2023-04-03T01:07:24;96486.16;;;1.81;100.00
7662;BME280;30314;48.184;11.510;2023-04-03T01:09:57;96474.44;;;1.72;100.00
7662;BME280;30314;48.184;11.510;2023-04-03T01:12:30;96477.00;;;1.79;100.00
7662;BME280;30314;48.184;11.510;2023-04-03T01:15:12;96481.41;;;1.78;100.00
7662;BME280;30314;48.184;11.510;2023-04-03T01:17:59;96487.25;;;1.74;100.00
7662;BME280;30314;48.184;11.510;2023-04-03T01:25:47;96476.09;;;1.66;100.00
7662;BME280;30314;48.184;11.510;2023-04-03T01:28:30;96483.84;;;1.73;100.00
7662;BME280;30314;48.184;11.510;2023-04-03T01:33:41;96484.06;;;1.72;100.00
7662;BME280;30314;48.184;11.510;2023-04-03T01:36:08;96484.22;;;1.77;100.00
7662;BME280;30314;48.184;11.510;2023-04-03T01:38:36;96454.56;;;1.52;100.00
7662;BME280;30314;48.184;11.510;2023-04-03T01:41:02;96495.09;;;1.67;100.00
7662;BME280;30314;48.184;11.510;2023-04-03T01:43:29;96476.59;;;1.57;100.00
7662;BME280;30314;48.184;11.510;2023-04-03T01:45:55;96488.16;;;1.61;100.00
7662;BME280;30314;48.184;11.510;2023-04-03T01:48:22;96487.94;;;1.62;100.00
7662;BME280;30314;48.184;11.510;2023-04-03T01:50:49;96455.63;;;1.45;100.00
7662;BME280;30314;48.184;11.510;2023-04-03T01:53:17;96482.38;;;1.59;100.00
7662;BME280;30314;48.184;11.510;2023-04-03T01:55:44;96444.84;;;1.41;100.00
7662;BME280;30314;48.184;11.510;2023-04-03T01:58:10;96485.19;;;1.57;100.00
7662;BME280;30314;48.184;11.510;2023-04-03T02:00:37;96489.53;;;1.63;100.00
7662;BME280;30314;48.184;11.510;2023-04-03T02:03:04;96464.59;;;1.49;100.00
7662;BME280;30314;48.184;11.510;2023-04-03T02:05:31;96482.56;;;1.57;100.00
7662;BME280;30314;48.184;11.510;2023-04-03T02:07:58;96485.13;;;1.64;100.00
7662;BME280;30314;48.184;11.510;2023-04-03T02:10:25;96469.59;;;1.50;100.00
7662;BME280;30314;48.184;11.510;2023-04-03T02:12:51;96485.56;;;1.61;100.00
7662;BME280;30314;48.184;11.510;2023-04-03T02:15:18;96481.72;;;1.63;100.00
7662;BME280;30314;48.184;11.510;2023-04-03T02:17:44;96476.09;;;1.66;100.00
7662;BME280;30314;48.184;11.510;2023-04-03T02:20:12;96464.53;;;1.56;100.00
7662;BME280;30314;48.184;11.510;2023-04-03T02:22:40;96475.47;;;1.71;100.00
7662;BME280;30314;48.184;11.510;2023-04-03T02:25:06;96463.75;;;1.55;100.00
7662;BME280;30314;48.184;11.510;2023-04-03T02:27:33;96482.25;;;1.72;100.00
7662;BME280;30314;48.184;11.510;2023-04-03T02:30:00;96466.13;;;1.63;100.00
7662;BME280;30314;48.184;11.510;2023-04-03T02:32:27;96470.31;;;1.64;100.00
7662;BME280;30314;48.184;11.510;2023-04-03T02:34:54;96468.88;;;1.68;100.00
7662;BME280;30314;48.184;11.510;2023-04-03T02:37:21;96471.91;;;1.65;100.00
7662;BME280;30314;48.184;11.510;2023-04-03T02:39:49;96462.69;;;1.63;100.00
7662;BME280;30314;48.184;11.510;2023-04-03T02:42:16;96471.91;;;1.65;100.00
7662;BME280;30314;48.184;11.510;2023-04-03T02:44:43;96466.69;;;1.65;100.00
7662;BME280;30314;48.184;11.510;2023-04-03T02:47:09;96475.88;;;1.68;100.00
7662;BME280;30314;48.184;11.510;2023-04-03T02:49:36;96471.66;;;1.67;100.00
7662;BME280;30314;48.184;11.510;2023-04-03T02:52:02;96467.84;;;1.70;100.00
7662;BME280;30314;48.184;11.510;2023-04-03T02:54:29;96460.28;;;1.61;100.00
7662;BME280;30314;48.184;11.510;2023-04-03T02:57:00;96477.47;;;1.69;100.00
7662;BME280;30314;48.184;11.510;2023-04-03T02:59:27;96474.22;;;1.74;100.00
7662;BME280;30314;48.184;11.510;2023-04-03T03:01:53;96466.13;;;1.63;100.00
7662;BME280;30314;48.184;11.510;2023-04-03T03:04:20;96489.00;;;1.80;100.00
7662;BME280;30314;48.184;11.510;2023-04-03T03:06:46;96477.00;;;1.79;100.00
7662;BME280;30314;48.184;11.510;2023-04-03T03:09:13;96469.59;;;1.76;100.00
7662;BME280;30314;48.184;11.510;2023-04-03T03:11:41;96485.16;;;1.82;100.00
7662;BME280;30314;48.184;11.510;2023-04-03T03:14:08;96472.56;;;1.79;100.00
7662;BME280;30314;48.184;11.510;2023-04-03T03:16:34;96471.22;;;1.77;100.00
7662;BME280;30314;48.184;11.510;2023-04-03T03:19:01;96444.38;;;1.51;100.00
7662;BME280;30314;48.184;11.510;2023-04-03T03:21:28;96451.91;;;1.59;100.00
7662;BME280;30314;48.184;11.510;2023-04-03T03:23:54;96448.47;;;1.65;100.00
7662;BME280;30314;48.184;11.510;2023-04-03T03:26:21;96474.66;;;1.71;100.00
7662;BME280;30314;48.184;11.510;2023-04-03T03:28:47;96480.00;;;1.76;100.00
7662;BME280;30314;48.184;11.510;2023-04-03T03:31:14;96476.09;;;1.66;100.00
7662;BME280;30314;48.184;11.510;2023-04-03T03:33:41;96484.06;;;1.72;100.00
7662;BME280;30314;48.184;11.510;2023-04-03T03:36:08;96483.47;;;1.70;100.00
7662;BME280;30314;48.184;11.510;2023-04-03T03:38:35;96472.09;;;1.64;100.00
7662;BME280;30314;48.184;11.510;2023-04-03T03:41:02;96481.25;;;1.73;100.00
7662;BME280;30314;48.184;11.510;2023-04-03T03:43:31;96478.00;;;1.78;100.00
7662;BME280;30314;48.184;11.510;2023-04-03T03:45:58;96477.47;;;1.69;100.00
7662;BME280;30314;48.184;11.510;2023-04-03T03:48:25;96460.16;;;1.56;100.00
7662;BME280;30314;48.184;11.510;2023-04-03T03:50:52;96469.56;;;1.57;100.00
7662;BME280;30314;48.184;11.510;2023-04-03T03:53:22;96477.69;;;1.67;100.00
7662;BME280;30314;48.184;11.510;2023-04-03T03:55:51;96467.09;;;1.62;100.00
7662;BME280;30314;48.184;11.510;2023-04-03T03:58:21;96476.47;;;1.70;100.00
7662;BME280;30314;48.184;11.510;2023-04-03T04:00:47;96475.09;;;1.67;100.00
7662;BME280;30314;48.184;11.510;2023-04-03T04:03:14;96468.06;;;1.68;100.00
7662;BME280;30314;48.184;11.510;2023-04-03T04:05:43;96481.78;;;1.82;100.00
7662;BME280;30314;48.184;11.510;2023-04-03T04:08:10;96478.34;;;1.81;100.00
7662;BME280;30314;48.184;11.510;2023-04-03T04:10:37;96485.97;;;1.83;100.00
7662;BME280;30314;48.184;11.510;2023-04-03T04:13:05;96474.75;;;1.82;100.00
7662;BME280;30314;48.184;11.510;2023-04-03T04:15:31;96477.84;;;1.73;100.00
7662;BME280;30314;48.184;11.510;2023-04-03T04:17:58;96487.41;;;1.79;100.00
7662;BME280;30314;48.184;11.510;2023-04-03T04:20:25;96473.19;;;1.75;100.00
7662;BME280;30314;48.184;11.510;2023-04-03T04:22:52;96475.97;;;1.80;100.00
7662;BME280;30314;48.184;11.510;2023-04-03T04:25:20;96475.97;;;1.80;100.00
7662;BME280;30314;48.184;11.510;2023-04-03T04:27:46;96471.41;;;1.75;100.00
7662;BME280;30314;48.184;11.510;2023-04-03T04:30:14;96482.47;;;1.71;100.00
7662;BME280;30314;48.184;11.510;2023-04-03T04:32:43;96478.66;;;1.73;100.00
7662;BME280;30314;48.184;11.510;2023-04-03T04:35:10;96471.09;;;1.65;100.00
7662;BME280;30314;48.184;11.510;2023-04-03T04:37:40;96489.22;;;1.78;100.00
7662;BME280;30314;48.184;11.510;2023-04-03T04:40:09;96474.06;;;1.68;100.00
7662;BME280;30314;48.184;11.510;2023-04-03T04:42:35;96484.22;;;1.77;100.00
7662;BME280;30314;48.184;11.510;2023-04-03T04:45:02;96468.72;;;1.63;100.00
7662;BME280;30314;48.184;11.510;2023-04-03T04:47:29;96487.19;;;1.80;100.00
7662;BME280;30314;48.184;11.510;2023-04-03T04:49:56;96486.97;;;1.82;100.00
7662;BME280;30314;48.184;11.510;2023-04-03T04:52:23;96494.94;;;1.87;100.00
7662;BME280;30314;48.184;11.510;2023-04-03T04:54:49;96487.19;;;1.80;100.00
7662;BME280;30314;48.184;11.510;2023-04-03T04:57:16;96494.75;;;1.89;100.00
7662;BME280;30314;48.184;11.510;2023-04-03T04:59:44;96487.63;;;1.77;100.00
7662;BME280;30314;48.184;11.510;2023-04-03T05:02:11;96475.09;;;1.67;100.00
7662;BME280;30314;48.184;11.510;2023-04-03T05:04:39;96493.69;;;1.71;100.00
7662;BME280;30314;48.184;11.510;2023-04-03T05:07:11;96499.69;;;1.72;100.00
7662;BME280;30314;48.184;11.510;2023-04-03T05:09:38;96511.19;;;1.82;100.00
7662;BME280;30314;48.184;11.510;2023-04-03T05:12:05;96489.06;;;1.73;100.00
7662;BME280;30314;48.184;11.510;2023-04-03T05:14:38;96495.91;;;1.67;100.00
7662;BME280;30314;48.184;11.510;2023-04-03T05:17:07;96502.28;;;1.72;100.00
7662;BME280;30314;48.184;11.510;2023-04-03T05:19:37;96483.69;;;1.68;100.00
7662;BME280;30314;48.184;11.510;2023-04-03T05:22:05;96498.47;;;1.74;100.00
7662;BME280;30314;48.184;11.510;2023-04-03T05:24:32;96509.41;;;1.83;100.00
7662;BME280;30314;48.184;11.510;2023-04-03T05:26:59;96501.69;;;1.70;100.00
7662;BME280;30314;48.184;11.510;2023-04-03T05:29:26;96488.69;;;1.70;100.00
7662;BME280;30314;48.184;11.510;2023-04-03T05:31:54;96514.88;;;1.75;100.00
7662;BME280;30314;48.184;11.510;2023-04-03T05:34:21;96515.00;;;1.87;100.00
7662;BME280;30314;48.184;11.510;2023-04-03T05:36:50;96510.00;;;1.85;100.00
7662;BME280;30314;48.184;11.510;2023-04-03T05:39:17;96505.84;;;1.77;100.00
7662;BME280;30314;48.184;11.510;2023-04-03T05:41:46;96482.91;;;1.67;100.00
7662;BME280;30314;48.184;11.510;2023-04-03T05:44:27;96448.78;;;1.50;100.00
7662;BME280;30314;48.184;11.510;2023-04-03T05:46:54;96500.00;;;1.82;100.00
7662;BME280;30314;48.184;11.510;2023-04-03T05:49:20;96504.56;;;1.87;100.00
7662;BME280;30314;48.184;11.510;2023-04-03T05:51:47;96508.00;;;1.80;100.00
7662;BME280;30314;48.184;11.510;2023-04-03T05:54:28;96515.38;;;1.90;100.00
7662;BME280;30314;48.184;11.510;2023-04-03T05:57:02;96519.72;;;1.96;100.00
7662;BME280;30314;48.184;11.510;2023-04-03T05:59:28;96511.31;;;1.94;100.00
7662;BME280;30314;48.184;11.510;2023-04-03T06:01:57;96487.19;;;1.80;100.00
7662;BME280;30314;48.184;11.510;2023-04-03T06:04:24;96474.22;;;1.74;100.00
7662;BME280;30314;48.184;11.510;2023-04-03T06:06:53;96522.47;;;2.02;100.00
7662;BME280;30314;48.184;11.510;2023-04-03T06:09:23;96526.53;;;1.97;100.00
7662;BME280;30314;48.184;11.510;2023-04-03T06:11:50;96529.31;;;1.96;100.00
7662;BME280;30314;48.184;11.510;2023-04-03T06:14:18;96526.13;;;1.94;100.00
7662;BME280;30314;48.184;11.510;2023-04-03T06:16:45;96512.59;;;1.85;100.00
7662;BME280;30314;48.184;11.510;2023-04-03T06:19:13;96526.38;;;1.92;100.00
7662;BME280;30314;48.184;11.510;2023-04-03T06:21:45;96530.72;;;1.99;100.00
7662;BME280;30314;48.184;11.510;2023-04-03T06:24:15;96525.06;;;2.02;100.00
7662;BME280;30314;48.184;11.510;2023-04-03T06:26:42;96534.00;;;2.13;100.00
7662;BME280;30314;48.184;11.510;2023-04-03T06:29:09;96502.34;;;1.90;100.00
7662;BME280;30314;48.184;11.510;2023-04-03T06:31:36;96526.84;;;2.08;100.00
7662;BME280;30314;48.184;11.510;2023-04-03T06:34:04;96523.06;;;2.04;100.00
7662;BME280;30314;48.184;11.510;2023-04-03T06:36:33;96494.94;;;1.87;100.00
7662;BME280;30314;48.184;11.510;2023-04-03T06:39:00;96541.34;;;2.22;100.00
7662;BME280;30314;48.184;11.510;2023-04-03T06:41:27;96509.97;;;2.10;100.00
7662;BME280;30314;48.184;11.510;2023-04-03T06:43:54;96522.06;;;2.23;100.00
7662;BME280;30314;48.184;11.510;2023-04-03T06:46:22;96520.69;;;2.21;100.00
7662;BME280;30314;48.184;11.510;2023-04-03T06:48:49;96491.19;;;2.02;100.00
7662;BME280;30314;48.184;11.510;2023-04-03T06:51:27;96502.69;;;2.19;100.00
7662;BME280;30314;48.184;11.510;2023-04-03T06:53:56;96527.44;;;2.29;100.00
7662;BME280;30314;48.184;11.510;2023-04-03T06:56:23;96514.41;;;2.29;100.00
7662;BME280;30314;48.184;11.510;2023-04-03T06:58:50;96519.78;;;2.34;100.00
7662;BME280;30314;48.184;11.510;2023-04-03T07:01:18;96534.13;;;2.43;100.00
7662;BME280;30314;48.184;11.510;2023-04-03T07:03:48;96551.94;;;2.65;100.00
7662;BME280;30314;48.184;11.510;2023-04-03T07:06:16;96550.16;;;2.65;100.00
7662;BME280;30314;48.184;11.510;2023-04-03T07:08:43;96549.28;;;2.53;100.00
7662;BME280;30314;48.184;11.510;2023-04-03T07:11:11;96555.72;;;2.69;100.00
7662;BME280;30314;48.184;11.510;2023-04-03T07:13:38;96554.41;;;2.78;100.00
7662;BME280;30314;48.184;11.510;2023-04-03T07:16:05;96536.44;;;2.70;100.00
7662;BME280;30314;48.184;11.510;2023-04-03T07:18:33;96547.84;;;2.76;100.00
7662;BME280;30314;48.184;11.510;2023-04-03T07:20:59;96550.56;;;2.81;100.00
7662;BME280;30314;48.184;11.510;2023-04-03T07:23:26;96565.41;;;2.80;100.00
7662;BME280;30314;48.184;11.510;2023-04-03T07:25:54;96538.75;;;2.78;100.00
7662;BME280;30314;48.184;11.510;2023-04-03T07:28:21;96569.16;;;3.03;100.00
7662;BME280;30314;48.184;11.510;2023-04-03T07:30:51;96499.94;;;2.33;100.00
7662;BME280;30314;48.184;11.510;2023-04-03T07:33:21;96571.88;;;2.78;100.00
7662;BME280;30314;48.184;11.510;2023-04-03T07:35:48;96565.41;;;2.80;100.00
7662;BME280;30314;48.184;11.510;2023-04-03T07:38:16;96566.59;;;2.85;100.00
7662;BME280;30314;48.184;11.510;2023-04-03T07:40:50;96582.66;;;3.00;100.00
7662;BME280;30314;48.184;11.510;2023-04-03T07:43:19;96577.81;;;2.85;100.00
7662;BME280;30314;48.184;11.510;2023-04-03T07:45:48;96581.34;;;2.91;100.00
7662;BME280;30314;48.184;11.510;2023-04-03T07:48:19;96567.38;;;2.85;100.00
7662;BME280;30314;48.184;11.510;2023-04-03T07:50:46;96556.66;;;2.75;100.00
7662;BME280;30314;48.184;11.510;2023-04-03T07:53:13;96593.81;;;2.89;100.00
7662;BME280;30314;48.184;11.510;2023-04-03T07:55:40;96531.22;;;2.51;100.00
7662;BME280;30314;48.184;11.510;2023-04-03T07:58:11;96595.13;;;2.98;100.00
7662;BME280;30314;48.184;11.510;2023-04-03T08:00:39;96574.53;;;2.90;100.00
7662;BME280;30314;48.184;11.510;2023-04-03T08:03:06;96597.44;;;3.06;100.00
7662;BME280;30314;48.184;11.510;2023-04-03T08:05:44;96596.00;;;3.11;100.00
7662;BME280;30314;48.184;11.510;2023-04-03T08:08:13;96591.34;;;3.13;100.00
7662;BME280;30314;48.184;11.510;2023-04-03T08:10:40;96594.81;;;3.06;100.00
7662;BME280;30314;48.184;11.510;2023-04-03T08:13:08;96593.22;;;3.05;100.00
7662;BME280;30314;48.184;11.510;2023-04-03T08:15:36;96588.31;;;2.97;100.00
7662;BME280;30314;48.184;11.510;2023-04-03T08:18:03;96595.41;;;3.08;100.00
7662;BME280;30314;48.184;11.510;2023-04-03T08:20:30;96587.00;;;3.06;100.00
7662;BME280;30314;48.184;11.510;2023-04-03T08:22:57;96586.59;;;3.09;100.00
7662;BME280;30314;48.184;11.510;2023-04-03T08:25:23;96573.00;;;3.01;100.00
7662;BME280;30314;48.184;11.510;2023-04-03T08:27:50;96593.16;;;3.12;100.00
7662;BME280;30314;48.184;11.510;2023-04-03T08:30:17;96585.41;;;3.05;100.00
7662;BME280;30314;48.184;11.510;2023-04-03T08:32:43;96581.28;;;2.98;100.00
7662;BME280;30314;48.184;11.510;2023-04-03T08:35:11;96610.06;;;3.09;100.00
7662;BME280;30314;48.184;11.510;2023-04-03T08:37:39;96607.47;;;3.09;100.00
7662;BME280;30314;48.184;11.510;2023-04-03T08:40:07;96575.94;;;2.92;100.00
7662;BME280;30314;48.184;11.510;2023-04-03T08:43:00;96611.50;;;3.24;100.00
7662;BME280;30314;48.184;11.510;2023-04-03T08:45:53;96605.44;;;3.12;100.00
7662;BME280;30314;48.184;11.510;2023-04-03T08:48:39;96614.19;;;2.99;100.00
7662;BME280;30314;48.184;11.510;2023-04-03T08:51:14;96608.44;;;3.08;100.00
7662;BME280;30314;48.184;11.510;2023-04-03T08:54:03;96563.81;;;2.79;100.00
7662;BME280;30314;48.184;11.510;2023-04-03T08:56:31;96618.75;;;3.03;100.00
7662;BME280;30314;48.184;11.510;2023-04-03T08:59:04;96572.81;;;2.84;100.00
7662;BME280;30314;48.184;11.510;2023-04-03T09:01:37;96619.50;;;3.11;100.00
7662;BME280;30314;48.184;11.510;2023-04-03T09:04:15;96608.28;;;3.22;100.00
7662;BME280;30314;48.184;11.510;2023-04-03T09:06:51;96585.97;;;3.07;100.00
7662;BME280;30314;48.184;11.510;2023-04-03T09:12:21;96615.25;;;3.28;100.00
7662;BME280;30314;48.184;11.510;2023-04-03T09:17:59;96606.69;;;3.21;100.00
7662;BME280;30314;48.184;11.510;2023-04-03T09:20:39;96612.34;;;3.36;100.00
7662;BME280;30314;48.184;11.510;2023-04-03T09:23:25;96614.28;;;3.41;100.00
7662;BME280;30314;48.184;11.510;2023-04-03T09:26:01;96613.44;;;3.59;100.00
7662;BME280;30314;48.184;11.510;2023-04-03T09:28:32;96595.50;;;3.51;100.00
7662;BME280;30314;48.184;11.510;2023-04-03T09:31:27;96579.25;;;3.49;100.00
7662;BME280;30314;48.184;11.510;2023-04-03T09:34:02;96537.25;;;3.20;100.00
7662;BME280;30314;48.184;11.510;2023-04-03T09:36:43;96604.84;;;3.71;100.00
7662;BME280;30314;48.184;11.510;2023-04-03T09:39:20;96600.28;;;3.66;100.00
7662;BME280;30314;48.184;11.510;2023-04-03T09:42:19;96611.78;;;3.65;100.00
7662;BME280;30314;48.184;11.510;2023-04-03T09:44:57;96594.16;;;3.60;100.00
7662;BME280;30314;48.184;11.510;2023-04-03T09:47:36;96584.38;;;3.56;100.00
7662;BME280;30314;48.184;11.510;2023-04-03T09:52:45;96584.16;;;3.57;100.00
7662;BME280;30314;48.184;11.510;2023-04-03T09:55:21;96606.78;;;3.63;98.85
7662;BME280;30314;48.184;11.510;2023-04-03T09:57:54;96581.06;;;3.48;100.00
7662;BME280;30314;48.184;11.510;2023-04-03T10:00:22;96601.69;;;3.69;98.91
7662;BME280;30314;48.184;11.510;2023-04-03T10:02:51;96606.91;;;3.69;99.25
7662;BME280;30314;48.184;11.510;2023-04-03T10:05:33;96603.47;;;3.68;100.00
7662;BME280;30314;48.184;11.510;2023-04-03T10:10:36;96594.75;;;3.62;100.00
7662;BME280;30314;48.184;11.510;2023-04-03T10:13:09;96604.50;;;3.67;99.16
7662;BME280;30314;48.184;11.510;2023-04-03T10:15:48;96557.25;;;3.26;100.00
7662;BME280;30314;48.184;11.510;2023-04-03T10:21:09;96599.44;;;3.42;100.00
7662;BME280;30314;48.184;11.510;2023-04-03T10:24:18;96607.97;;;3.49;100.00
7662;BME280;30314;48.184;11.510;2023-04-03T10:27:03;96607.53;;;3.52;100.00
7662;BME280;30314;48.184;11.510;2023-04-03T10:32:18;96602.06;;;3.54;100.00
7662;BME280;30314;48.184;11.510;2023-04-03T10:34:47;96600.16;;;3.49;100.00
7662;BME280;30314;48.184;11.510;2023-04-03T10:37:35;96602.31;;;3.52;100.00
7662;BME280;30314;48.184;11.510;2023-04-03T10:43:09;96608.22;;;3.59;96.75
7662;BME280;30314;48.184;11.510;2023-04-03T10:45:57;96604.59;;;3.60;99.13
7662;BME280;30314;48.184;11.510;2023-04-03T10:51:43;96610.00;;;3.47;98.37
7662;BME280;30314;48.184;11.510;2023-04-03T10:54:15;96608.50;;;3.39;95.91
7662;BME280;30314;48.184;11.510;2023-04-03T10:56:48;96601.91;;;3.36;94.80
7662;BME280;30314;48.184;11.510;2023-04-03T10:59:40;96569.91;;;3.11;92.17
7662;BME280;30314;48.184;11.510;2023-04-03T11:04:43;96585.72;;;3.28;92.10
7662;BME280;30314;48.184;11.510;2023-04-03T11:07:18;96607.13;;;3.36;94.17
7662;BME280;30314;48.184;11.510;2023-04-03T11:09:50;96596.41;;;3.26;94.32
7662;BME280;30314;48.184;11.510;2023-04-03T11:12:24;96597.34;;;3.32;93.40
7662;BME280;30314;48.184;11.510;2023-04-03T11:14:54;96587.00;;;3.25;92.04
7662;BME280;30314;48.184;11.510;2023-04-03T11:17:31;96585.47;;;3.17;91.92
7662;BME280;30314;48.184;11.510;2023-04-03T11:20:14;96604.59;;;3.30;94.71
7662;BME280;30314;48.184;11.510;2023-04-03T11:22:49;96599.59;;;3.28;98.16
7662;BME280;30314;48.184;11.510;2023-04-03T11:25:21;96574.81;;;3.19;94.26
7662;BME280;30314;48.184;11.510;2023-04-03T11:28:04;96600.53;;;3.34;99.98
7662;BME280;30314;48.184;11.510;2023-04-03T11:30:46;96580.88;;;3.31;96.75
7662;BME280;30314;48.184;11.510;2023-04-03T11:36:05;96557.25;;;3.26;90.68
7662;BME280;30314;48.184;11.510;2023-04-03T11:38:54;96583.97;;;3.40;89.74
7662;BME280;30314;48.184;11.510;2023-04-03T11:41:30;96564.34;;;3.37;87.35
7662;BME280;30314;48.184;11.510;2023-04-03T11:44:04;96569.13;;;3.41;80.11
7662;BME280;30314;48.184;11.510;2023-04-03T11:46:50;96583.28;;;3.63;85.21
7662;BME280;30314;48.184;11.510;2023-04-03T12:00:47;96580.47;;;3.89;74.85
7662;BME280;30314;48.184;11.510;2023-04-03T12:16:33;96558.00;;;4.47;64.52
7662;BME280;30314;48.184;11.510;2023-04-03T12:22:22;96548.31;;;4.72;64.99
7662;BME280;30314;48.184;11.510;2023-04-03T12:24:29;96555.81;;;4.80;62.36
7662;BME280;30314;48.184;11.510;2023-04-03T12:40:50;96547.34;;;4.90;59.90
7662;BME280;30314;48.184;11.510;2023-04-03T12:48:26;96537.28;;;5.11;61.59
7662;BME280;30314;48.184;11.510;2023-04-03T12:50:54;96536.59;;;5.15;63.21
7662;BME280;30314;48.184;11.510;2023-04-03T12:53:25;96528.53;;;5.05;59.93
7662;BME280;30314;48.184;11.510;2023-04-03T12:56:25;96523.44;;;4.98;60.55
7662;BME280;30314;48.184;11.510;2023-04-03T12:58:54;96529.09;;;5.07;59.17
7662;BME280;30314;48.184;11.510;2023-04-03T13:01:24;96523.94;;;5.12;56.58
7662;BME280;30314;48.184;11.510;2023-04-03T13:03:55;96515.81;;;4.97;59.73
7662;BME280;30314;48.184;11.510;2023-04-03T13:06:29;96524.59;;;4.90;62.68
7662;BME280;30314;48.184;11.510;2023-04-03T13:09:00;96530.53;;;4.86;61.34
7662;BME280;30314;48.184;11.510;2023-04-03T13:11:32;96523.94;;;4.83;59.66
7662;BME280;30314;48.184;11.510;2023-04-03T13:14:05;96529.75;;;4.73;59.31
7662;BME280;30314;48.184;11.510;2023-04-03T13:16:40;96527.28;;;4.67;61.21
7662;BME280;30314;48.184;11.510;2023-04-03T13:19:16;96526.81;;;4.70;58.84
7662;BME280;30314;48.184;11.510;2023-04-03T13:21:44;96522.16;;;4.60;57.23
7662;BME280;30314;48.184;11.510;2023-04-03T13:24:12;96516.50;;;4.51;57.35
7662;BME280;30314;48.184;11.510;2023-04-03T13:26:42;96535.72;;;4.57;57.37
7662;BME280;30314;48.184;11.510;2023-04-03T13:29:29;96527.28;;;4.55;59.11
7662;BME280;30314;48.184;11.510;2023-04-03T13:31:59;96518.41;;;4.68;57.83
7662;BME280;30314;48.184;11.510;2023-04-03T13:34:29;96530.47;;;4.57;59.09
7662;BME280;30314;48.184;11.510;2023-04-03T13:37:00;96522.16;;;4.60;57.64
7662;BME280;30314;48.184;11.510;2023-04-03T13:39:30;96525.13;;;4.51;60.82
7662;BME280;30314;48.184;11.510;2023-04-03T13:41:59;96529.13;;;4.54;64.70
7662;BME280;30314;48.184;11.510;2023-04-03T13:44:34;96531.03;;;4.59;62.50
7662;BME280;30314;48.184;11.510;2023-04-03T13:49:59;96515.56;;;4.69;64.10
7662;BME280;30314;48.184;11.510;2023-04-03T13:52:41;96515.75;;;4.79;60.52
7662;BME280;30314;48.184;11.510;2023-04-03T13:57:59;96517.19;;;4.99;64.25
7662;BME280;30314;48.184;11.510;2023-04-03T14:00:31;96514.66;;;5.04;61.19
7662;BME280;30314;48.184;11.510;2023-04-03T14:02:58;96506.94;;;4.98;67.26
7662;BME280;30314;48.184;11.510;2023-04-03T14:05:25;96517.25;;;5.04;61.33
7662;BME280;30314;48.184;11.510;2023-04-03T14:07:53;96502.72;;;4.97;60.98
7662;BME280;30314;48.184;11.510;2023-04-03T14:10:21;96511.31;;;5.09;60.48
7662;BME280;30314;48.184;11.510;2023-04-03T14:12:48;96513.34;;;5.19;56.14
7662;BME280;30314;48.184;11.510;2023-04-03T14:15:20;96510.44;;;5.03;54.21
7662;BME280;30314;48.184;11.510;2023-04-03T14:17:48;96496.72;;;4.96;57.96
7662;BME280;30314;48.184;11.510;2023-04-03T14:20:16;96492.50;;;4.95;60.87
7662;BME280;30314;48.184;11.510;2023-04-03T14:22:43;96503.06;;;5.00;53.82
7662;BME280;30314;48.184;11.510;2023-04-03T14:25:10;96495.97;;;5.01;52.21
7662;BME280;30314;48.184;11.510;2023-04-03T14:27:48;96485.22;;;4.97;52.81
7662;BME280;30314;48.184;11.510;2023-04-03T14:30:23;96491.78;;;5.00;54.27
7662;BME280;30314;48.184;11.510;2023-04-03T14:32:50;96486.25;;;4.96;53.01
7662;BME280;30314;48.184;11.510;2023-04-03T14:35:18;96477.91;;;4.99;56.82
7662;BME280;30314;48.184;11.510;2023-04-03T14:37:46;96487.34;;;5.29;57.68
7662;BME280;30314;48.184;11.510;2023-04-03T14:40:17;96489.97;;;5.46;56.71
7662;BME280;30314;48.184;11.510;2023-04-03T14:42:45;96481.16;;;5.70;52.50
7662;BME280;30314;48.184;11.510;2023-04-03T14:45:14;96484.28;;;5.84;52.88
7662;BME280;30314;48.184;11.510;2023-04-03T14:47:53;96497.44;;;5.89;53.02
7662;BME280;30314;48.184;11.510;2023-04-03T14:50:23;96491.44;;;5.88;53.67